Time;durP1;ratioP1;P1;durP2;ratioP2;P2;SDS_P1;SDS_P2;PMS_P1;PMS_P2;Temp;Humidity;BMP_temperature;BMP_pressure;BME280_temperature;BME280_humidity;BME280_pressure;Samples;Min_cycle;Max_cycle;Signal;HPM_P1;HPM_P2
2023/07/13 00:02:18;;;;;;;3.55;1.13;;;20.10;94.50;;;;;;5032833;28;20112;-46
2023/07/13 00:04:44;;;;;;;2.13;1.30;;;20.10;94.90;;;;;;5031821;28;20086;-44
2023/07/13 00:07:09;;;;;;;3.80;1.58;;;20.00;95.20;;;;;;5031825;28;20029;-47
2023/07/13 00:09:35;;;;;;;5.40;0.98;;;20.10;95.00;;;;;;5032715;28;20029;-46
2023/07/13 00:12:02;;;;;;;6.28;1.25;;;20.10;95.00;;;;;;5032585;28;20486;-46
2023/07/13 00:14:28;;;;;;;2.97;1.40;;;20.00;94.80;;;;;;5032458;28;20450;-46
2023/07/13 00:16:55;;;;;;;4.13;1.83;;;19.90;95.20;;;;;;5031893;28;20033;-48
2023/07/13 00:19:20;;;;;;;2.03;1.23;;;19.90;95.20;;;;;;5033344;28;20533;-49
2023/07/13 00:21:46;;;;;;;2.38;1.20;;;19.90;95.40;;;;;;5032459;28;20029;-50
2023/07/13 00:24:15;;;;;;;4.55;1.85;;;19.80;95.50;;;;;;5032233;28;20064;-46
2023/07/13 00:26:45;;;;;;;2.83;1.52;;;19.80;95.30;;;;;;5031646;28;20083;-51
2023/07/13 00:29:11;;;;;;;1.88;0.93;;;19.70;95.20;;;;;;5032198;28;20032;-48
2023/07/13 00:31:37;;;;;;;2.20;1.20;;;19.70;95.40;;;;;;5032113;28;20029;-48
2023/07/13 00:34:03;;;;;;;1.55;1.10;;;19.70;95.60;;;;;;5032022;28;20045;-49
2023/07/13 00:36:30;;;;;;;5.88;1.20;;;19.70;95.90;;;;;;5031175;28;20112;-51
2023/07/13 00:38:56;;;;;;;4.90;1.35;;;19.70;96.10;;;;;;5030531;28;20061;-48
2023/07/13 00:41:21;;;;;;;3.15;1.30;;;19.80;96.40;;;;;;5031007;28;20064;-45
2023/07/13 00:43:47;;;;;;;3.97;1.40;;;19.70;96.80;;;;;;5031920;28;20064;-51
2023/07/13 00:46:25;;;;;;;3.10;1.17;;;19.70;97.70;;;;;;5031245;28;20400;-49
2023/07/13 00:48:54;;;;;;;3.10;1.20;;;19.50;97.70;;;;;;5032088;28;20048;-47
2023/07/13 00:51:24;;;;;;;4.22;1.30;;;19.40;97.60;;;;;;5031837;28;20025;-50
2023/07/13 00:53:52;;;;;;;1.85;1.45;;;19.40;97.50;;;;;;5031815;28;20033;-46
2023/07/13 00:56:18;;;;;;;1.45;1.38;;;19.30;97.50;;;;;;5031874;28;20503;-49
2023/07/13 00:58:44;;;;;;;1.67;1.40;;;19.30;97.60;;;;;;5031821;28;20029;-49
2023/07/13 01:01:09;;;;;;;1.88;1.63;;;19.30;97.70;;;;;;5031945;28;20281;-44
2023/07/13 01:03:35;;;;;;;4.60;1.20;;;19.30;97.70;;;;;;5030350;28;20048;-45
2023/07/13 01:06:01;;;;;;;3.72;1.50;;;19.30;97.80;;;;;;5031299;28;20048;-49
2023/07/13 01:08:27;;;;;;;4.63;1.25;;;19.30;97.80;;;;;;5031291;28;20100;-47
2023/07/13 01:10:58;;;;;;;6.07;1.60;;;19.20;98.10;;;;;;5031435;28;20029;-48
2023/07/13 01:13:23;;;;;;;3.13;1.38;;;19.10;98.30;;;;;;5031566;28;20104;-48
2023/07/13 01:15:51;;;;;;;1.50;1.40;;;19.10;98.50;;;;;;5030987;28;20097;-45
2023/07/13 01:18:26;;;;;;;2.58;1.40;;;19.10;98.90;;;;;;5030595;28;20040;-46
2023/07/13 01:21:03;;;;;;;3.88;1.85;;;19.10;98.90;;;;;;5031566;28;20036;-45
2023/07/13 01:23:30;;;;;;;4.38;1.30;;;19.10;99.50;;;;;;5030065;28;20022;-51
2023/07/13 01:25:56;;;;;;;4.65;1.67;;;19.10;99.30;;;;;;5031198;28;20128;-47
2023/07/13 01:28:26;;;;;;;5.25;1.23;;;19.10;99.20;;;;;;5029991;28;20405;-48
2023/07/13 01:30:52;;;;;;;3.42;1.35;;;19.10;99.80;;;;;;5031366;28;20104;-46
2023/07/13 01:33:18;;;;;;;6.72;1.00;;;19.10;99.80;;;;;;5031364;28;20498;-51
2023/07/13 01:35:45;;;;;;;2.13;1.25;;;19.10;99.70;;;;;;5031342;28;20022;-50
2023/07/13 01:38:13;;;;;;;5.22;1.67;;;19.00;99.90;;;;;;5029858;28;20029;-46
2023/07/13 01:40:39;;;;;;;7.88;1.70;;;18.90;99.90;;;;;;5031346;28;20083;-47
2023/07/13 01:43:05;;;;;;;1.50;1.33;;;18.80;99.90;;;;;;5031280;28;20029;-45
2023/07/13 01:45:31;;;;;;;4.72;1.33;;;18.80;99.90;;;;;;5030057;28;20025;-47
2023/07/13 01:47:57;;;;;;;2.10;1.60;;;18.80;99.90;;;;;;5029553;28;20037;-46
2023/07/13 01:50:23;;;;;;;2.35;1.40;;;18.80;99.90;;;;;;5033797;28;20033;-47
2023/07/13 01:52:49;;;;;;;2.95;1.58;;;18.80;99.90;;;;;;5035472;28;20367;-46
2023/07/13 01:55:15;;;;;;;1.88;1.30;;;18.70;99.90;;;;;;5034374;28;20026;-47
2023/07/13 01:57:40;;;;;;;3.20;1.20;;;18.60;99.90;;;;;;5033232;28;20457;-48
2023/07/13 02:00:09;;;;;;;2.05;1.30;;;18.60;99.90;;;;;;5035343;28;20048;-46
2023/07/13 02:02:34;;;;;;;7.20;1.23;;;18.50;99.90;;;;;;5035134;28;20528;-49
2023/07/13 02:05:00;;;;;;;6.03;1.52;;;18.50;99.90;;;;;;5034987;28;20059;-48
2023/07/13 02:07:25;;;;;;;1.33;1.00;;;18.50;99.90;;;;;;5034218;28;20105;-46
2023/07/13 02:09:51;;;;;;;4.50;1.63;;;18.40;99.90;;;;;;5034902;28;20120;-47
2023/07/13 02:12:16;;;;;;;7.15;1.60;;;18.40;99.90;;;;;;5034910;28;20030;-46
2023/07/13 02:14:42;;;;;;;6.53;1.30;;;18.20;99.90;;;;;;5033406;28;20021;-49
2023/07/13 02:17:08;;;;;;;2.20;1.35;;;18.20;99.90;;;;;;5034120;28;20104;-45
2023/07/13 02:19:34;;;;;;;4.25;1.63;;;18.20;99.90;;;;;;5034633;28;20124;-45
2023/07/13 02:21:59;;;;;;;4.05;1.60;;;18.20;99.90;;;;;;5034736;28;20462;-48
2023/07/13 02:24:25;;;;;;;1.45;1.35;;;18.10;99.90;;;;;;5034486;28;20037;-48
2023/07/13 02:26:51;;;;;;;3.58;1.60;;;18.10;99.90;;;;;;5032661;28;20025;-47
2023/07/13 02:29:16;;;;;;;3.03;1.80;;;18.10;99.90;;;;;;5033349;28;20024;-47
2023/07/13 02:31:42;;;;;;;2.83;1.85;;;18.00;99.90;;;;;;5034427;28;20029;-46
2023/07/13 02:34:07;;;;;;;7.95;1.55;;;18.00;99.90;;;;;;5034402;28;20020;-47
2023/07/13 02:36:33;;;;;;;4.50;1.40;;;17.90;99.90;;;;;;5033730;28;20026;-49
2023/07/13 02:39:04;;;;;;;4.00;1.50;;;17.90;99.90;;;;;;5033450;28;20056;-48
2023/07/13 02:41:29;;;;;;;2.72;1.58;;;17.80;99.90;;;;;;5033078;28;20340;-47
2023/07/13 02:44:02;;;;;;;2.58;1.38;;;17.80;99.90;;;;;;5034276;28;20076;-47
2023/07/13 02:46:28;;;;;;;2.38;1.60;;;17.80;99.90;;;;;;5032187;28;20022;-49
2023/07/13 02:48:54;;;;;;;2.25;1.75;;;17.80;99.90;;;;;;5034140;28;20405;-49
2023/07/13 02:51:19;;;;;;;4.95;1.80;;;17.60;99.90;;;;;;5034074;28;20076;-48
2023/07/13 02:53:45;;;;;;;3.55;1.60;;;17.50;99.90;;;;;;5033998;28;20040;-51
2023/07/13 02:56:10;;;;;;;3.35;1.65;;;17.40;99.90;;;;;;5032063;28;20108;-50
2023/07/13 02:58:38;;;;;;;5.97;1.55;;;17.30;99.90;;;;;;5033843;28;20393;-52
2023/07/13 03:01:08;;;;;;;3.33;1.75;;;17.30;99.90;;;;;;5033007;28;20033;-48
2023/07/13 03:03:33;;;;;;;5.20;1.83;;;17.20;99.90;;;;;;5034141;28;20523;-46
2023/07/13 03:06:02;;;;;;;7.85;1.55;;;17.30;99.90;;;;;;5032481;28;20030;-47
2023/07/13 03:08:27;;;;;;;4.63;1.73;;;17.20;99.90;;;;;;5033548;28;20022;-48
2023/07/13 03:11:01;;;;;;;2.25;2.05;;;17.10;99.90;;;;;;5034263;28;20488;-45
2023/07/13 03:13:27;;;;;;;6.40;1.92;;;17.10;99.90;;;;;;5033673;28;20408;-49
2023/07/13 03:15:52;;;;;;;9.45;2.28;;;17.10;99.90;;;;;;5033853;28;20105;-46
2023/07/13 03:18:18;;;;;;;4.72;1.70;;;17.00;99.90;;;;;;5032993;28;20069;-48
2023/07/13 03:20:43;;;;;;;4.13;1.55;;;17.00;99.90;;;;;;5033692;28;20131;-50
2023/07/13 03:23:09;;;;;;;3.97;1.70;;;17.00;99.90;;;;;;5032279;28;20374;-49
2023/07/13 03:25:34;;;;;;;5.38;1.58;;;17.00;99.90;;;;;;5033561;28;20037;-50
2023/07/13 03:28:00;;;;;;;1.83;1.23;;;17.00;99.90;;;;;;5031582;28;20431;-48
2023/07/13 03:30:26;;;;;;;6.32;3.20;;;17.10;99.90;;;;;;5033433;28;20602;-48
2023/07/13 03:32:51;;;;;;;2.80;1.80;;;17.10;99.90;;;;;;5033503;28;20017;-51
2023/07/13 03:35:17;;;;;;;8.10;1.80;;;17.10;99.90;;;;;;5033293;28;20067;-47
2023/07/13 03:37:42;;;;;;;2.53;1.70;;;17.10;99.90;;;;;;5032413;28;20048;-46
2023/07/13 03:40:09;;;;;;;2.42;1.25;;;17.10;99.90;;;;;;5031554;28;20090;-50
2023/07/13 03:42:35;;;;;;;2.80;1.60;;;17.10;99.90;;;;;;5033364;28;20028;-49
2023/07/13 03:45:00;;;;;;;1.40;1.30;;;17.10;99.90;;;;;;5033161;28;20021;-51
2023/07/13 03:47:26;;;;;;;2.60;1.73;;;17.10;99.90;;;;;;5032460;28;20030;-53
2023/07/13 03:49:51;;;;;;;4.40;1.70;;;17.10;99.90;;;;;;5033255;28;20033;-50
2023/07/13 03:52:17;;;;;;;2.58;1.40;;;17.10;99.90;;;;;;5033114;28;20038;-51
2023/07/13 03:54:42;;;;;;;2.65;1.65;;;17.10;99.90;;;;;;5033384;28;20575;-49
2023/07/13 03:57:08;;;;;;;5.43;2.63;;;17.10;99.90;;;;;;5033064;28;20035;-46
2023/07/13 03:59:34;;;;;;;5.25;1.70;;;17.20;99.90;;;;;;5033117;28;20033;-45
2023/07/13 04:02:01;;;;;;;1.80;1.40;;;17.20;99.90;;;;;;5031826;28;20025;-46
2023/07/13 04:04:26;;;;;;;5.90;1.73;;;17.30;99.90;;;;;;5032918;28;20036;-46
2023/07/13 04:06:53;;;;;;;5.40;2.00;;;17.30;99.90;;;;;;5030881;28;20108;-46
2023/07/13 04:09:18;;;;;;;6.53;1.65;;;17.40;99.90;;;;;;5032858;28;20014;-46
2023/07/13 04:11:44;;;;;;;4.13;1.85;;;17.40;99.90;;;;;;5032617;28;20036;-47
2023/07/13 04:14:09;;;;;;;2.03;1.80;;;17.50;99.90;;;;;;5031438;28;20036;-46
2023/07/13 04:16:35;;;;;;;2.95;1.65;;;17.50;99.90;;;;;;5032027;28;20021;-45
2023/07/13 04:19:00;;;;;;;3.03;1.73;;;17.50;99.90;;;;;;5032482;28;20193;-47
2023/07/13 04:21:31;;;;;;;1.83;1.70;;;17.50;99.90;;;;;;5031114;28;20545;-46
2023/07/13 04:23:57;;;;;;;6.03;2.50;;;17.50;99.90;;;;;;5032606;28;20486;-50
2023/07/13 04:26:23;;;;;;;2.92;2.00;;;17.60;99.90;;;;;;5031698;28;20025;-47
2023/07/13 04:28:50;;;;;;;4.85;1.88;;;17.50;99.90;;;;;;5032368;28;20032;-46
2023/07/13 04:31:15;;;;;;;2.17;2.05;;;17.60;99.90;;;;;;5032362;28;20113;-49
2023/07/13 04:33:41;;;;;;;2.92;1.75;;;17.60;99.90;;;;;;5032165;28;20117;-46
2023/07/13 04:36:09;;;;;;;6.88;2.00;;;17.60;99.90;;;;;;5031533;28;20017;-46
2023/07/13 04:38:35;;;;;;;7.47;1.77;;;17.60;99.90;;;;;;5031101;28;20021;-46
2023/07/13 04:41:03;;;;;;;3.97;2.15;;;17.70;99.90;;;;;;5032225;28;20029;-51
2023/07/13 04:43:30;;;;;;;4.75;1.98;;;17.60;99.90;;;;;;5032128;28;20029;-46
2023/07/13 04:45:56;;;;;;;1.67;1.30;;;17.70;99.90;;;;;;5031842;28;20116;-50
2023/07/13 04:48:22;;;;;;;4.28;1.73;;;17.60;99.90;;;;;;5031666;28;20101;-46
2023/07/13 04:50:53;;;;;;;4.80;1.70;;;17.60;99.90;;;;;;5030944;28;20032;-47
2023/07/13 04:53:19;;;;;;;5.45;1.85;;;17.70;99.90;;;;;;5032040;28;20018;-47
2023/07/13 04:55:44;;;;;;;6.60;1.83;;;17.90;99.90;;;;;;5032026;28;20021;-47
2023/07/13 04:58:10;;;;;;;8.10;2.28;;;18.10;99.90;;;;;;5030238;28;20021;-46
2023/07/13 05:00:35;;;;;;;3.17;1.52;;;18.30;99.90;;;;;;5032018;28;20033;-46
2023/07/13 05:03:01;;;;;;;3.22;1.58;;;18.50;99.90;;;;;;5031766;28;20029;-49
2023/07/13 05:05:27;;;;;;;6.53;2.00;;;19.00;99.90;;;;;;5031540;28;20030;-47
2023/07/13 05:07:53;;;;;;;1.95;1.75;;;19.60;99.90;;;;;;5030920;28;20037;-46
2023/07/13 05:10:19;;;;;;;2.95;1.63;;;20.40;99.90;;;;;;5031691;28;20033;-48
2023/07/13 05:12:45;;;;;;;2.20;1.42;;;21.20;99.10;;;;;;5031658;28;20403;-51
2023/07/13 05:15:11;;;;;;;2.10;1.38;;;21.90;97.20;;;;;;5030372;28;20037;-47
2023/07/13 05:17:38;;;;;;;9.90;1.63;;;22.60;95.80;;;;;;5030920;28;20040;-50
2023/07/13 05:20:05;;;;;;;2.92;1.27;;;23.20;95.10;;;;;;5031877;28;20101;-50
2023/07/13 05:22:31;;;;;;;3.85;1.50;;;23.90;93.50;;;;;;5032321;28;20021;-51
2023/07/13 05:24:56;;;;;;;6.88;1.35;;;24.50;92.40;;;;;;5030721;28;20093;-52
2023/07/13 05:27:23;;;;;;;4.43;1.88;;;24.90;91.40;;;;;;5031172;28;20033;-48
2023/07/13 05:29:48;;;;;;;1.38;1.20;;;25.60;90.30;;;;;;5031572;28;20438;-47
2023/07/13 05:32:14;;;;;;;3.17;1.10;;;26.30;88.80;;;;;;5031313;28;20068;-48
2023/07/13 05:34:39;;;;;;;2.40;1.33;;;26.90;86.90;;;;;;5031311;28;20025;-50
2023/07/13 05:37:05;;;;;;;5.50;1.20;;;27.40;86.50;;;;;;5030789;28;20022;-46
2023/07/13 05:39:30;;;;;;;2.15;1.08;;;27.90;85.50;;;;;;5030197;28;20024;-49
2023/07/13 05:41:56;;;;;;;2.20;0.75;;;28.30;83.40;;;;;;5031183;28;20033;-52
2023/07/13 05:44:21;;;;;;;3.63;1.02;;;28.60;82.00;;;;;;5031201;28;20034;-51
2023/07/13 05:46:47;;;;;;;3.88;1.40;;;29.00;80.60;;;;;;5030612;28;20393;-46
2023/07/13 05:49:12;;;;;;;1.50;0.68;;;29.50;79.70;;;;;;5031109;28;20036;-48
2023/07/13 05:51:38;;;;;;;3.03;1.30;;;30.10;77.70;;;;;;5031136;28;20037;-47
2023/07/13 05:54:03;;;;;;;2.67;1.08;;;30.30;74.90;;;;;;5029750;28;20048;-46
2023/07/13 05:56:29;;;;;;;1.73;0.93;;;30.50;74.00;;;;;;5030375;28;20067;-49
2023/07/13 05:58:56;;;;;;;3.78;1.10;;;30.60;74.00;;;;;;5029423;28;20467;-51
2023/07/13 06:01:22;;;;;;;2.92;1.23;;;30.50;73.40;;;;;;5031108;28;20037;-48
2023/07/13 06:03:47;;;;;;;2.45;0.90;;;30.80;72.30;;;;;;5030933;28;20022;-49
2023/07/13 06:06:13;;;;;;;2.22;1.10;;;30.70;71.90;;;;;;5030445;28;20034;-55
2023/07/13 06:08:39;;;;;;;1.77;0.93;;;30.90;71.60;;;;;;5031102;28;20493;-48
2023/07/13 06:11:27;;;;;;;3.30;1.05;;;30.90;72.30;;;;;;5031017;28;20378;-53
2023/07/13 06:14:01;;;;;;;3.13;1.10;;;31.00;72.30;;;;;;5029690;28;20037;-49
2023/07/13 06:16:27;;;;;;;2.83;1.05;;;31.30;72.00;;;;;;5026657;28;20030;-47
2023/07/13 06:18:52;;;;;;;3.08;1.00;;;31.80;70.80;;;;;;5052762;22;20508;-51
2023/07/13 06:21:20;;;;;;;7.78;1.10;;;32.10;69.60;;;;;;5031203;28;20030;-51
2023/07/13 06:23:49;;;;;;;3.33;1.00;;;32.00;68.50;;;;;;5030988;28;20030;-53
2023/07/13 06:26:15;;;;;;;2.72;1.13;;;31.80;67.20;;;;;;5030737;28;20029;-51
2023/07/13 06:28:40;;;;;;;1.10;0.80;;;31.60;67.20;;;;;;5030908;28;20021;-51
2023/07/13 06:31:07;;;;;;;2.63;0.80;;;31.70;66.00;;;;;;5029698;28;20037;-48
2023/07/13 06:33:33;;;;;;;4.68;0.90;;;31.30;66.50;;;;;;5031119;28;20028;-50
2023/07/13 06:35:59;;;;;;;2.65;0.82;;;31.20;66.20;;;;;;5031176;28;20024;-47
2023/07/13 06:38:24;;;;;;;1.63;0.55;;;31.20;66.50;;;;;;5033257;28;20481;-51
2023/07/13 06:40:50;;;;;;;3.47;0.68;;;31.20;66.10;;;;;;5034489;28;20031;-47
2023/07/13 06:43:15;;;;;;;5.00;0.75;;;31.00;66.10;;;;;;5033225;28;20029;-49
2023/07/13 06:45:47;;;;;;;2.38;0.65;;;30.80;66.90;;;;;;5034749;28;20084;-51
2023/07/13 06:48:13;;;;;;;0.50;0.50;;;31.30;66.20;;;;;;5033594;28;20051;-49
2023/07/13 06:50:38;;;;;;;2.13;0.70;;;31.00;66.60;;;;;;5034289;28;20104;-47
2023/07/13 06:53:04;;;;;;;5.32;0.77;;;31.30;65.60;;;;;;5034380;28;20240;-49
2023/07/13 06:55:29;;;;;;;2.15;0.80;;;31.60;65.30;;;;;;5034499;28;20029;-51
2023/07/13 06:57:55;;;;;;;2.90;0.75;;;31.30;65.50;;;;;;5033543;28;20031;-52
2023/07/13 07:00:20;;;;;;;2.30;1.00;;;31.20;64.80;;;;;;5034103;28;20034;-48
2023/07/13 07:02:46;;;;;;;5.82;1.00;;;31.20;65.00;;;;;;5033964;28;20057;-48
2023/07/13 07:05:11;;;;;;;4.30;0.88;;;31.60;65.20;;;;;;5034023;28;20026;-49
2023/07/13 07:07:37;;;;;;;1.75;0.93;;;31.90;64.20;;;;;;5032135;28;20039;-47
2023/07/13 07:10:03;;;;;;;2.83;1.08;;;32.00;64.30;;;;;;5032862;28;20038;-49
2023/07/13 07:12:29;;;;;;;3.10;1.02;;;32.70;64.00;;;;;;5033958;28;20524;-47
2023/07/13 07:14:54;;;;;;;2.88;1.00;;;32.90;63.00;;;;;;5033790;28;20065;-47
2023/07/13 07:17:20;;;;;;;3.22;0.77;;;33.10;62.60;;;;;;5033234;28;20120;-50
2023/07/13 07:19:45;;;;;;;3.80;0.90;;;33.00;62.40;;;;;;5033622;28;20121;-46
2023/07/13 07:22:11;;;;;;;4.85;0.93;;;32.70;62.50;;;;;;5033763;28;20041;-47
2023/07/13 07:24:37;;;;;;;3.10;1.00;;;32.40;63.30;;;;;;5033653;28;20037;-47
2023/07/13 07:27:03;;;;;;;5.38;1.10;;;32.50;63.30;;;;;;5033018;28;20086;-48
2023/07/13 07:29:28;;;;;;;3.78;0.90;;;32.90;63.30;;;;;;5033585;28;20017;-49
2023/07/13 07:31:54;;;;;;;2.67;1.00;;;32.70;63.50;;;;;;5033556;28;20022;-47
2023/07/13 07:34:20;;;;;;;3.05;0.98;;;33.10;63.00;;;;;;5033437;28;20032;-46
2023/07/13 07:36:45;;;;;;;6.00;0.90;;;33.10;62.10;;;;;;5032770;28;20087;-46
2023/07/13 07:39:11;;;;;;;2.13;0.82;;;32.80;62.60;;;;;;5032469;28;20397;-47
2023/07/13 07:41:37;;;;;;;3.53;1.00;;;33.00;62.10;;;;;;5034101;28;20087;-50
2023/07/13 07:44:03;;;;;;;3.03;1.02;;;33.60;62.30;;;;;;5033446;28;20022;-52
2023/07/13 07:46:29;;;;;;;3.60;1.05;;;33.90;61.00;;;;;;5032297;28;20045;-47
2023/07/13 07:48:55;;;;;;;5.60;1.08;;;33.40;61.50;;;;;;5032056;28;20025;-50
2023/07/13 07:51:21;;;;;;;3.42;0.55;;;33.40;61.70;;;;;;5033547;28;20497;-50
2023/07/13 07:53:47;;;;;;;5.20;1.05;;;33.80;61.20;;;;;;5032083;28;20039;-46
2023/07/13 07:56:13;;;;;;;2.17;1.02;;;33.80;60.50;;;;;;5032749;28;20478;-47
2023/07/13 07:58:38;;;;;;;4.32;0.82;;;33.10;60.90;;;;;;5033208;28;20105;-47
2023/07/13 08:01:07;;;;;;;4.05;1.17;;;32.50;61.50;;;;;;5033307;28;20033;-48
2023/07/13 08:03:33;;;;;;;4.60;1.00;;;32.20;61.80;;;;;;5032856;28;20033;-47
2023/07/13 08:05:58;;;;;;;1.23;1.02;;;31.80;61.90;;;;;;5032928;28;20032;-43
2023/07/13 08:08:25;;;;;;;4.78;0.93;;;31.30;62.50;;;;;;5032499;28;20038;-51
2023/07/13 08:10:50;;;;;;;2.22;0.88;;;31.20;62.60;;;;;;5032773;28;20083;-48
2023/07/13 08:13:16;;;;;;;4.40;1.20;;;30.70;63.50;;;;;;5032578;28;20025;-46
2023/07/13 08:15:41;;;;;;;2.58;0.80;;;30.60;63.20;;;;;;5032536;28;20499;-47
2023/07/13 08:18:09;;;;;;;4.75;2.60;;;30.60;63.30;;;;;;5031743;28;20025;-46
2023/07/13 08:20:38;;;;;;;2.42;0.90;;;30.90;63.60;;;;;;5032659;28;20531;-46
2023/07/13 08:23:03;;;;;;;2.42;1.00;;;31.40;63.20;;;;;;5032517;28;20026;-44
2023/07/13 08:25:29;;;;;;;4.50;0.70;;;32.00;63.30;;;;;;5032472;28;20029;-48
2023/07/13 08:27:54;;;;;;;2.22;1.00;;;32.20;62.30;;;;;;5031746;28;20038;-46
2023/07/13 08:30:20;;;;;;;4.13;1.10;;;31.60;62.30;;;;;;5032086;28;20029;-46
2023/07/13 08:32:45;;;;;;;1.92;0.80;;;31.10;62.70;;;;;;5031069;28;20543;-48
2023/07/13 08:35:11;;;;;;;1.63;1.00;;;30.70;63.70;;;;;;5032137;28;20029;-51
2023/07/13 08:37:37;;;;;;;1.75;0.80;;;29.80;64.80;;;;;;5031499;28;20385;-49
2023/07/13 08:40:03;;;;;;;7.10;1.23;;;28.80;65.50;;;;;;5030991;28;20032;-49
2023/07/13 08:42:35;;;;;;;5.40;0.90;;;28.20;66.80;;;;;;5032118;28;20024;-49
2023/07/13 08:45:08;;;;;;;2.78;0.98;;;27.60;66.90;;;;;;5031967;28;20022;-50
2023/07/13 08:47:36;;;;;;;5.20;0.80;;;27.20;68.30;;;;;;5031529;28;20053;-52
2023/07/13 08:50:03;;;;;;;4.70;1.20;;;27.20;68.80;;;;;;5031805;28;20025;-50
2023/07/13 08:52:34;;;;;;;2.67;0.90;;;27.40;69.30;;;;;;5031932;28;20029;-49
2023/07/13 08:55:31;;;;;;;3.70;0.82;;;27.70;67.90;;;;;;5031964;28;20022;-47
2023/07/13 08:58:10;;;;;;;1.58;0.80;;;28.00;67.10;;;;;;5027972;28;20038;-47
2023/07/13 09:01:14;;;;;;;1.75;0.90;;;27.80;66.90;;;;;;5031791;28;20025;-50
2023/07/13 09:03:57;;;;;;;3.90;0.88;;;27.80;68.00;;;;;;5031752;28;20032;-49
2023/07/13 09:06:29;;;;;;;4.68;1.27;;;28.00;67.70;;;;;;5031239;28;20497;-48
2023/07/13 09:09:06;;;;;;;5.32;1.40;;;28.00;68.30;;;;;;5031708;28;20044;-49
2023/07/13 09:11:56;;;;;;;2.65;0.73;;;28.10;68.00;;;;;;5031638;28;20037;-47
2023/07/13 09:14:41;;;;;;;4.93;0.80;;;28.50;67.80;;;;;;5031547;28;20049;-47
2023/07/13 09:17:16;;;;;;;4.18;1.00;;;28.30;66.30;;;;;;5031057;28;20393;-48
2023/07/13 09:19:45;;;;;;;2.67;0.80;;;28.10;66.40;;;;;;5031454;28;20033;-48
2023/07/13 09:22:15;;;;;;;4.57;1.02;;;27.70;67.40;;;;;;5031524;28;20049;-48
2023/07/13 09:25:16;;;;;;;2.88;1.20;;;27.50;68.10;;;;;;5031405;28;20444;-48
2023/07/13 09:27:46;;;;;;;2.13;0.93;;;27.40;66.90;;;;;;5017358;28;20175;-50
2023/07/13 09:30:14;;;;;;;3.05;0.82;;;27.00;67.30;;;;;;5030744;28;20030;-49
2023/07/13 09:32:47;;;;;;;2.65;0.90;;;26.90;67.60;;;;;;5031845;28;20025;-52
2023/07/13 09:35:17;;;;;;;3.00;0.90;;;27.10;68.90;;;;;;5031835;28;20470;-51
2023/07/13 09:37:45;;;;;;;3.55;0.70;;;27.20;69.00;;;;;;5031196;28;20171;-54
2023/07/13 09:40:20;;;;;;;2.95;1.50;;;27.10;68.50;;;;;;5029392;28;20030;-48
2023/07/13 09:42:46;;;;;;;1.67;0.70;;;27.40;68.20;;;;;;5031248;28;20032;-50
2023/07/13 09:45:25;;;;;;;1.30;1.20;;;27.20;67.40;;;;;;5030719;28;20079;-50
2023/07/13 09:47:59;;;;;;;2.80;0.90;;;26.90;68.40;;;;;;5030636;28;20099;-47
2023/07/13 09:50:25;;;;;;;3.53;1.17;;;26.90;69.30;;;;;;5030990;28;20365;-45
2023/07/13 09:52:54;;;;;;;5.60;1.02;;;27.00;68.50;;;;;;5031129;28;20018;-48
2023/07/13 09:55:28;;;;;;;2.25;0.70;;;27.10;67.50;;;;;;5031103;28;20312;-47
2023/07/13 09:57:54;;;;;;;1.20;0.70;;;27.20;67.70;;;;;;5030430;28;20021;-51
2023/07/13 10:00:23;;;;;;;3.53;0.80;;;27.20;67.20;;;;;;5030925;28;20104;-45
2023/07/13 10:02:59;;;;;;;1.85;1.00;;;27.20;67.70;;;;;;5031007;28;20032;-49
2023/07/13 10:05:25;;;;;;;1.67;0.85;;;27.30;68.00;;;;;;5030958;28;20116;-52
2023/07/13 10:07:51;;;;;;;1.80;0.68;;;27.30;68.00;;;;;;5030605;28;20045;-51
2023/07/13 10:10:22;;;;;;;3.42;1.00;;;27.10;67.70;;;;;;5032841;28;20017;-50
2023/07/13 10:12:48;;;;;;;1.73;0.93;;;26.90;68.20;;;;;;5035268;28;20489;-48
2023/07/13 10:15:19;;;;;;;1.27;0.65;;;26.80;68.40;;;;;;5034883;28;20022;-46
2023/07/13 10:17:45;;;;;;;3.60;0.98;;;26.80;68.00;;;;;;5034374;28;20021;-48
2023/07/13 10:20:12;;;;;;;1.33;0.80;;;26.60;66.80;;;;;;5034881;28;20075;-48
2023/07/13 10:23:01;;;;;;;3.42;0.95;;;26.50;66.30;;;;;;5035775;28;20041;-47
2023/07/13 10:25:31;;;;;;;1.00;0.75;;;26.50;66.70;;;;;;5035237;28;20022;-48
2023/07/13 10:28:11;;;;;;;1.92;1.02;;;26.60;66.70;;;;;;5034202;28;20485;-51
2023/07/13 10:30:41;;;;;;;1.15;0.90;;;26.30;65.50;;;;;;5036305;28;20489;-47
2023/07/13 10:33:11;;;;;;;7.07;1.50;;;26.10;66.50;;;;;;5034878;28;20021;-47
2023/07/13 10:35:38;;;;;;;2.65;1.00;;;26.00;66.00;;;;;;5034721;28;20057;-49
2023/07/13 10:38:17;;;;;;;3.78;1.10;;;25.90;66.30;;;;;;5032801;28;20018;-52
2023/07/13 10:40:51;;;;;;;3.75;0.95;;;25.80;66.30;;;;;;5034542;28;20113;-48
2023/07/13 10:43:31;;;;;;;1.13;0.77;;;26.00;66.80;;;;;;5034534;28;20030;-50
2023/07/13 10:45:59;;;;;;;1.95;0.75;;;26.30;67.10;;;;;;5034495;28;20060;-50
2023/07/13 10:48:25;;;;;;;4.03;0.90;;;26.50;66.40;;;;;;5032569;28;20063;-51
2023/07/13 10:50:53;;;;;;;1.73;0.85;;;26.50;66.60;;;;;;5034437;28;20029;-48
2023/07/13 10:53:27;;;;;;;2.70;1.08;;;26.50;66.60;;;;;;5032888;28;20485;-46
2023/07/13 10:55:53;;;;;;;2.10;1.27;;;26.50;65.70;;;;;;5034353;28;20393;-51
2023/07/13 10:58:21;;;;;;;0.90;0.70;;;26.50;64.10;;;;;;5033348;28;20024;-46
2023/07/13 11:00:51;;;;;;;2.15;0.88;;;26.30;65.10;;;;;;5033991;28;20397;-47
2023/07/13 11:03:20;;;;;;;3.20;1.10;;;26.20;65.70;;;;;;5034259;28;20033;-46
2023/07/13 11:06:04;;;;;;;3.00;1.45;;;26.20;65.60;;;;;;5034031;28;20163;-46
2023/07/13 11:08:38;;;;;;;4.38;1.25;;;26.10;65.20;;;;;;5033762;28;20021;-48
2023/07/13 11:11:24;;;;;;;5.87;1.07;;;26.00;65.20;;;;;;5034486;28;20025;-52
2023/07/13 11:13:49;;;;;;;3.00;1.08;;;25.90;66.20;;;;;;5033805;28;20017;-47
2023/07/13 11:16:18;;;;;;;1.83;1.00;;;25.80;66.20;;;;;;5031880;28;20026;-51
2023/07/13 11:18:50;;;;;;;2.25;1.00;;;25.90;67.10;;;;;;5033564;28;20033;-48
2023/07/13 11:21:18;;;;;;;2.03;0.98;;;25.90;66.70;;;;;;5031854;28;20037;-47
2023/07/13 11:23:51;;;;;;;0.98;0.90;;;26.00;66.70;;;;;;5032373;28;20511;-48
2023/07/13 11:26:44;;;;;;;1.77;1.10;;;25.90;67.50;;;;;;5033104;28;20033;-43
2023/07/13 11:29:31;;;;;;;2.30;0.90;;;25.90;66.60;;;;;;5032239;28;20029;-45
2023/07/13 11:32:01;;;;;;;3.83;1.23;;;25.90;66.40;;;;;;5033522;28;20071;-50
2023/07/13 11:34:34;;;;;;;2.10;1.40;;;25.80;66.40;;;;;;5033043;28;20120;-46
2023/07/13 11:37:01;;;;;;;5.50;1.00;;;25.60;66.80;;;;;;5032877;28;20029;-46
2023/07/13 11:39:35;;;;;;;3.38;1.20;;;25.70;67.20;;;;;;5032382;28;20037;-47
2023/07/13 11:42:05;;;;;;;3.42;1.20;;;25.70;68.30;;;;;;5033411;28;20032;-48
2023/07/13 11:44:34;;;;;;;6.28;2.50;;;25.80;68.40;;;;;;5033286;28;20104;-51
2023/07/13 11:47:09;;;;;;;2.03;1.05;;;25.90;67.50;;;;;;5031452;28;20029;-52
2023/07/13 11:49:43;;;;;;;1.70;0.90;;;25.80;69.20;;;;;;5033364;28;20080;-50
2023/07/13 11:52:16;;;;;;;5.03;1.27;;;25.70;68.20;;;;;;5033183;28;20036;-51
2023/07/13 11:54:56;;;;;;;2.58;1.08;;;25.70;68.70;;;;;;5031722;28;20574;-49
2023/07/13 11:57:33;;;;;;;3.80;1.10;;;25.70;68.00;;;;;;5032567;28;20470;-47
2023/07/13 12:00:02;;;;;;;2.45;1.10;;;25.70;67.30;;;;;;5033274;28;20020;-46
2023/07/13 12:02:38;;;;;;;3.30;0.82;;;25.60;67.80;;;;;;5031840;28;20026;-49
2023/07/13 12:05:05;;;;;;;1.52;1.05;;;25.50;68.20;;;;;;5032964;28;20017;-52
2023/07/13 12:07:32;;;;;;;4.45;0.93;;;25.60;68.40;;;;;;5032209;28;20045;-48
2023/07/13 12:10:18;;;;;;;2.17;1.10;;;25.50;68.70;;;;;;5032698;28;20025;-47
2023/07/13 12:12:48;;;;;;;1.50;0.90;;;25.70;68.80;;;;;;5032963;28;20029;-47
2023/07/13 12:15:13;;;;;;;2.28;0.90;;;25.80;69.00;;;;;;5031429;28;20112;-46
2023/07/13 12:17:41;;;;;;;3.70;0.93;;;25.90;68.60;;;;;;5030765;28;20109;-47
2023/07/13 12:20:29;;;;;;;4.55;1.02;;;25.90;68.10;;;;;;5046524;22;20045;-54
2023/07/13 12:22:56;;;;;;;1.73;0.93;;;25.90;67.50;;;;;;5033065;28;20188;-53
2023/07/13 12:25:22;;;;;;;1.45;0.80;;;25.90;67.60;;;;;;5032776;28;20030;-52
2023/07/13 12:27:50;;;;;;;1.55;1.05;;;25.80;68.30;;;;;;5032275;28;20091;-52
2023/07/13 12:30:31;;;;;;;4.82;0.80;;;25.70;68.10;;;;;;5031328;28;20027;-52
2023/07/13 12:33:10;;;;;;;3.50;1.67;;;25.80;67.80;;;;;;5032363;28;20022;-55
2023/07/13 12:35:45;;;;;;;5.38;1.20;;;25.80;67.60;;;;;;5032759;28;20115;-54
2023/07/13 12:38:12;;;;;;;3.75;1.17;;;25.80;67.70;;;;;;5031000;28;20045;-53
2023/07/13 12:40:40;;;;;;;2.83;1.23;;;25.90;67.00;;;;;;5031370;28;20087;-55
2023/07/13 12:43:10;;;;;;;2.65;1.20;;;25.90;67.80;;;;;;5032542;28;20026;-57
2023/07/13 12:45:36;;;;;;;5.07;1.00;;;26.00;67.90;;;;;;5031215;28;20033;-55
2023/07/13 12:48:13;;;;;;;2.00;0.95;;;25.90;67.80;;;;;;5031542;28;20408;-55
2023/07/13 12:50:42;;;;;;;4.88;1.30;;;26.00;66.80;;;;;;5031070;28;20029;-53
2023/07/13 12:53:20;;;;;;;3.58;0.95;;;25.90;67.90;;;;;;5032365;28;20095;-50
2023/07/13 12:55:50;;;;;;;1.23;0.90;;;26.20;68.60;;;;;;5032398;28;20024;-55